createdAt,value
2019-03-05T00:00:04.289Z,7.88
2019-03-05T00:01:04.321Z,7.83
2019-03-05T00:02:04.339Z,7.82
2019-03-05T00:03:04.368Z,7.86
2019-03-05T00:04:04.383Z,7.91
2019-03-05T00:05:04.415Z,7.75
2019-03-05T00:06:04.434Z,7.88
2019-03-05T00:07:04.456Z,7.89
2019-03-05T00:08:04.477Z,7.86
2019-03-05T00:09:04.507Z,7.88
2019-03-05T00:10:04.534Z,7.93
2019-03-05T00:11:04.557Z,7.98
2019-03-05T00:12:04.574Z,7.96
2019-03-05T00:13:04.601Z,7.96
2019-03-05T00:14:04.620Z,7.92
2019-03-05T00:15:04.648Z,7.98
2019-03-05T00:16:04.667Z,7.93
2019-03-05T00:17:04.696Z,7.98
2019-03-05T00:18:04.724Z,8.03
2019-03-05T00:19:04.739Z,8.03
2019-03-05T00:20:04.774Z,7.95
2019-03-05T00:21:04.788Z,7.93
2019-03-05T00:22:04.818Z,7.98
2019-03-05T00:23:04.847Z,7.99
2019-03-05T00:24:04.865Z,7.91
2019-03-05T00:25:04.887Z,7.96
2019-03-05T00:26:04.907Z,7.99
2019-03-05T00:27:04.930Z,8.03
2019-03-05T00:28:04.952Z,8.03
2019-03-05T00:29:04.976Z,7.93
2019-03-05T00:30:05.002Z,7.98
2019-03-05T00:31:05.027Z,7.93
2019-03-05T00:32:05.048Z,7.98
2019-03-05T00:33:05.082Z,7.95
2019-03-05T00:34:05.103Z,7.95
2019-03-05T00:35:05.131Z,7.98
2019-03-05T00:36:05.149Z,7.95
2019-03-05T00:37:05.577Z,7.93
2019-03-05T00:38:05.205Z,7.92
2019-03-05T00:39:05.229Z,7.96
2019-03-05T00:40:05.240Z,7.93
2019-03-05T00:41:05.264Z,7.95
2019-03-05T00:42:05.287Z,7.91
2019-03-05T00:43:05.314Z,7.98
2019-03-05T00:44:05.332Z,7.98
2019-03-05T00:45:05.365Z,8.01
2019-03-05T00:46:05.384Z,7.95
2019-03-05T00:47:05.406Z,7.93
2019-03-05T00:48:05.429Z,7.95
2019-03-05T00:49:05.456Z,7.95
2019-03-05T00:50:05.474Z,7.95
2019-03-05T00:51:05.500Z,7.98
2019-03-05T00:52:05.521Z,7.98
2019-03-05T00:53:05.552Z,7.98
2019-03-05T00:54:05.571Z,7.98
2019-03-05T00:55:05.594Z,8.03
2019-03-05T00:56:05.634Z,7.91
2019-03-05T00:57:05.640Z,7.99
2019-03-05T00:58:05.666Z,7.99
2019-03-05T00:59:05.688Z,7.96
2019-03-05T01:00:05.713Z,7.98
2019-03-05T01:01:05.744Z,7.98
2019-03-05T01:02:05.761Z,7.98
2019-03-05T01:03:05.786Z,7.98
2019-03-05T01:04:05.807Z,7.96
2019-03-05T01:05:05.831Z,7.98
2019-03-05T01:06:05.857Z,7.77
2019-03-05T01:07:05.881Z,7.98
2019-03-05T01:08:05.901Z,7.83
2019-03-05T01:09:05.929Z,7.83
2019-03-05T01:10:05.950Z,7.78
2019-03-05T01:11:05.978Z,7.88
2019-03-05T01:12:06.001Z,7.85
2019-03-05T01:13:06.026Z,7.95
2019-03-05T01:14:06.055Z,7.86
2019-03-05T01:15:06.073Z,7.83
2019-03-05T01:16:06.093Z,7.91
2019-03-05T01:17:06.126Z,7.86
2019-03-05T01:18:06.141Z,7.83
2019-03-05T01:19:06.176Z,7.88
2019-03-05T01:20:06.189Z,7.86
2019-03-05T01:21:06.213Z,7.86
2019-03-05T01:22:06.246Z,7.82
2019-03-05T01:23:06.277Z,7.80
2019-03-05T01:24:06.285Z,7.89
2019-03-05T01:25:06.311Z,7.85
2019-03-05T01:26:06.335Z,7.83
2019-03-05T01:27:06.360Z,7.86
2019-03-05T01:28:06.381Z,7.86
2019-03-05T01:29:06.411Z,7.85
2019-03-05T01:30:06.427Z,7.88
2019-03-05T01:31:06.454Z,7.83
2019-03-05T01:32:06.484Z,7.88
2019-03-05T01:33:06.499Z,7.88
2019-03-05T01:34:06.525Z,7.88
2019-03-05T01:35:06.549Z,7.80
2019-03-05T01:36:06.571Z,7.83
2019-03-05T01:37:06.599Z,7.83
2019-03-05T01:38:06.622Z,7.85
2019-03-05T01:39:06.645Z,7.88
2019-03-05T01:40:06.669Z,7.91
2019-03-05T01:41:06.691Z,7.80
2019-03-05T01:42:06.719Z,7.82
2019-03-05T01:43:06.739Z,7.93
2019-03-05T01:44:06.779Z,7.88
2019-03-05T01:45:06.790Z,7.86
2019-03-05T01:46:06.810Z,7.83
2019-03-05T01:47:06.837Z,7.88
2019-03-05T01:48:06.854Z,7.86
2019-03-05T01:49:06.884Z,7.92
2019-03-05T01:50:06.912Z,7.85
2019-03-05T01:51:07.744Z,7.88
2019-03-05T01:52:06.952Z,7.98
2019-03-05T01:53:06.991Z,7.86
2019-03-05T01:54:07.011Z,7.86
2019-03-05T01:55:07.225Z,7.86
2019-03-05T01:56:07.052Z,7.75
2019-03-05T01:57:07.070Z,7.80
2019-03-05T01:58:07.101Z,7.78
2019-03-05T01:59:07.717Z,7.77
2019-03-05T02:00:07.146Z,7.75
2019-03-05T02:01:07.713Z,7.73
2019-03-05T02:02:07.694Z,7.74
2019-03-05T02:03:07.212Z,7.75
2019-03-05T02:04:07.738Z,7.80
2019-03-05T02:05:07.260Z,7.78
2019-03-05T02:06:07.286Z,7.78
2019-03-05T02:07:07.809Z,7.78
2019-03-05T02:08:07.328Z,7.75
2019-03-05T02:09:07.352Z,7.77
2019-03-05T02:10:07.829Z,7.78
2019-03-05T02:11:07.399Z,7.80
2019-03-05T02:12:07.441Z,7.78
2019-03-05T02:13:07.815Z,7.80
2019-03-05T02:14:07.473Z,7.78
2019-03-05T02:15:07.494Z,7.77
2019-03-05T02:16:07.520Z,7.78
2019-03-05T02:17:07.542Z,7.78
2019-03-05T02:18:07.564Z,7.78
2019-03-05T02:19:07.594Z,7.75
2019-03-05T02:20:07.611Z,7.85
2019-03-05T02:21:07.643Z,7.82
2019-03-05T02:22:07.663Z,7.82
2019-03-05T02:23:07.681Z,7.86
2019-03-05T02:24:07.707Z,7.83
2019-03-05T02:25:07.729Z,7.88
2019-03-05T02:26:07.755Z,7.83
2019-03-05T02:27:07.777Z,7.89
2019-03-05T02:28:07.800Z,7.88
2019-03-05T02:29:07.827Z,7.88
2019-03-05T02:30:07.848Z,7.89
2019-03-05T02:31:07.876Z,7.89
2019-03-05T02:32:07.904Z,7.91
2019-03-05T02:33:07.928Z,7.92
2019-03-05T02:34:07.954Z,7.92
2019-03-05T02:35:07.970Z,7.82
2019-03-05T02:36:07.993Z,7.93
2019-03-05T02:37:08.020Z,7.82
2019-03-05T02:38:08.040Z,7.95
2019-03-05T02:39:08.065Z,7.89
2019-03-05T02:40:08.093Z,7.85
2019-03-05T02:41:08.110Z,7.85
2019-03-05T02:42:08.135Z,7.88
2019-03-05T02:43:08.762Z,7.98
2019-03-05T02:44:08.183Z,7.85
2019-03-05T02:45:08.208Z,7.95
2019-03-05T02:46:08.732Z,7.98
2019-03-05T02:47:08.710Z,7.95
2019-03-05T02:48:08.730Z,7.98
2019-03-05T02:49:08.753Z,7.96
2019-03-05T02:50:08.327Z,7.95
2019-03-05T02:51:08.706Z,7.96
2019-03-05T02:52:08.729Z,7.88
2019-03-05T02:53:08.699Z,7.95
2019-03-05T02:54:08.772Z,7.88
2019-03-05T02:55:08.446Z,7.85
2019-03-05T02:56:08.719Z,7.88
2019-03-05T02:57:08.518Z,7.93
2019-03-05T02:58:08.532Z,7.89
2019-03-05T02:59:08.813Z,7.86
2019-03-05T03:00:08.567Z,7.89
2019-03-05T03:01:08.596Z,7.82
2019-03-05T03:02:08.815Z,7.86
2019-03-05T03:03:08.639Z,7.78
2019-03-05T03:04:08.664Z,7.77
2019-03-05T03:05:08.837Z,7.74
2019-03-05T03:06:08.719Z,7.64
2019-03-05T03:07:08.733Z,7.61
2019-03-05T03:08:08.755Z,7.68
2019-03-05T03:09:08.782Z,7.55
2019-03-05T03:10:08.803Z,7.56
2019-03-05T03:11:08.836Z,7.45
2019-03-05T03:12:08.852Z,7.48
2019-03-05T03:13:08.883Z,7.44
2019-03-05T03:14:08.902Z,7.44
2019-03-05T03:15:08.930Z,7.34
2019-03-05T03:16:08.948Z,7.34
2019-03-05T03:17:08.970Z,7.18
2019-03-05T03:18:08.992Z,7.13
2019-03-05T03:19:09.021Z,7.05
2019-03-05T03:20:09.041Z,7.03
2019-03-05T03:21:09.072Z,6.98
2019-03-05T03:22:09.089Z,6.91
2019-03-05T03:23:09.112Z,6.91
2019-03-05T03:24:09.137Z,6.93
2019-03-05T03:25:09.161Z,6.90
2019-03-05T03:26:09.183Z,6.98
2019-03-05T03:27:09.209Z,6.83
2019-03-05T03:28:09.234Z,6.82
2019-03-05T03:29:09.254Z,6.83
2019-03-05T03:30:09.280Z,6.79
2019-03-05T03:31:09.310Z,6.76
2019-03-05T03:32:09.347Z,6.68
2019-03-05T03:33:09.367Z,6.67
2019-03-05T03:34:09.374Z,6.58
2019-03-05T03:35:09.424Z,6.55
2019-03-05T03:36:09.422Z,6.44
2019-03-05T03:37:09.444Z,6.44
2019-03-05T03:38:09.477Z,6.44
2019-03-05T03:39:09.502Z,6.43
2019-03-05T03:40:09.523Z,6.33
2019-03-05T03:41:09.542Z,6.31
2019-03-05T03:42:09.569Z,6.28
2019-03-05T03:43:09.593Z,6.33
2019-03-05T03:44:09.611Z,6.20
2019-03-05T03:45:09.633Z,6.15
2019-03-05T03:46:09.663Z,6.20
2019-03-05T03:47:09.682Z,6.21
2019-03-05T03:48:09.703Z,6.15
2019-03-05T03:49:09.725Z,6.17
2019-03-05T03:50:09.752Z,6.14
2019-03-05T03:51:09.777Z,6.09
2019-03-05T03:52:09.803Z,6.09
2019-03-05T03:53:09.818Z,6.09
2019-03-05T03:54:09.847Z,6.07
2019-03-05T03:55:09.865Z,6.03
2019-03-05T03:56:09.890Z,5.96
2019-03-05T03:57:09.921Z,6.00
2019-03-05T03:58:09.934Z,5.99
2019-03-05T03:59:09.969Z,5.89
2019-03-05T04:00:09.980Z,5.92
2019-03-05T04:01:10.009Z,5.88
2019-03-05T04:02:10.030Z,6.00
2019-03-05T04:03:10.049Z,5.98
2019-03-05T04:04:10.076Z,6.02
2019-03-05T04:05:10.100Z,5.92
2019-03-05T04:06:10.120Z,6.02
2019-03-05T04:07:10.143Z,5.92
2019-03-05T04:08:10.613Z,6.02
2019-03-05T04:09:10.199Z,6.03
2019-03-05T04:10:10.216Z,6.05
2019-03-05T04:11:10.254Z,6.03
2019-03-05T04:12:10.261Z,6.06
2019-03-05T04:13:10.283Z,6.15
2019-03-05T04:14:10.309Z,6.13
2019-03-05T04:15:10.346Z,6.17
2019-03-05T04:16:10.352Z,6.20
2019-03-05T04:17:10.384Z,6.06
2019-03-05T04:18:10.399Z,6.20
2019-03-05T04:19:10.423Z,6.24
2019-03-05T04:20:10.444Z,6.29
2019-03-05T04:21:10.537Z,6.29
2019-03-05T04:22:10.499Z,6.33
2019-03-05T04:23:10.512Z,6.31
2019-03-05T04:24:10.533Z,6.29
2019-03-05T04:25:10.559Z,6.34
2019-03-05T04:26:10.585Z,6.34
2019-03-05T04:27:10.605Z,6.31
2019-03-05T04:28:10.635Z,6.40
2019-03-05T04:29:10.659Z,6.36
2019-03-05T04:30:10.671Z,6.40
2019-03-05T04:31:13.318Z,6.37
2019-03-05T04:32:10.753Z,6.42
2019-03-05T04:33:10.749Z,6.46
2019-03-05T04:34:10.764Z,6.37
2019-03-05T04:35:10.791Z,6.42
2019-03-05T04:36:10.910Z,6.52
2019-03-05T04:37:10.832Z,6.49
2019-03-05T04:38:10.855Z,6.46
2019-03-05T04:39:10.880Z,6.42
2019-03-05T04:40:10.907Z,6.52
2019-03-05T04:41:10.924Z,6.49
2019-03-05T04:42:10.949Z,6.55
2019-03-05T04:43:10.972Z,6.58
2019-03-05T04:44:10.993Z,6.64
2019-03-05T04:45:11.017Z,6.62
2019-03-05T04:46:11.040Z,6.58
2019-03-05T04:47:11.067Z,6.60
2019-03-05T04:48:11.088Z,6.64
2019-03-05T04:49:11.112Z,6.61
2019-03-05T04:50:11.136Z,6.57
2019-03-05T04:51:11.159Z,6.60
2019-03-05T04:52:11.230Z,6.60
2019-03-05T04:53:11.207Z,6.62
2019-03-05T04:54:11.227Z,6.64
2019-03-05T04:55:11.250Z,6.64
2019-03-05T04:56:11.274Z,6.68
2019-03-05T04:57:11.298Z,6.73
2019-03-05T04:58:11.323Z,6.70
2019-03-05T04:59:11.347Z,6.65
2019-03-05T05:00:11.370Z,6.61
2019-03-05T05:01:11.390Z,6.64
2019-03-05T05:02:11.417Z,6.60
2019-03-05T05:03:11.439Z,6.65
2019-03-05T05:04:11.468Z,6.64
2019-03-05T05:05:11.486Z,6.58
2019-03-05T05:06:11.507Z,6.62
2019-03-05T05:07:11.533Z,6.60
2019-03-05T05:08:11.557Z,6.62
2019-03-05T05:09:11.587Z,6.67
2019-03-05T05:10:11.601Z,6.60
2019-03-05T05:11:11.629Z,6.60
2019-03-05T05:12:11.645Z,6.72
2019-03-05T05:13:11.673Z,6.73
2019-03-05T05:14:11.705Z,6.61
2019-03-05T05:15:11.723Z,6.72
2019-03-05T05:16:11.750Z,6.68
2019-03-05T05:17:11.767Z,6.73
2019-03-05T05:18:11.791Z,6.73
2019-03-05T05:19:11.813Z,6.78
2019-03-05T05:20:11.833Z,6.76
2019-03-05T05:21:11.858Z,6.73
2019-03-05T05:22:11.879Z,6.76
2019-03-05T05:23:11.919Z,6.85
2019-03-05T05:24:11.933Z,6.83
2019-03-05T05:25:11.952Z,6.79
2019-03-05T05:26:11.981Z,6.73
2019-03-05T05:27:14.618Z,6.85
2019-03-05T05:28:12.020Z,6.67
2019-03-05T05:29:12.048Z,6.70
2019-03-05T05:30:12.065Z,6.72
2019-03-05T05:31:12.090Z,6.72
2019-03-05T05:32:12.113Z,6.73
2019-03-05T05:33:12.134Z,6.79
2019-03-05T05:34:12.177Z,6.72
2019-03-05T05:46:24.656Z,6.61
2019-03-05T05:47:24.670Z,6.61
2019-03-05T05:48:24.694Z,6.73
2019-03-05T05:49:24.714Z,6.64
2019-03-05T05:50:24.738Z,6.72
2019-03-05T05:51:24.761Z,6.64
2019-03-05T05:52:24.785Z,6.58
2019-03-05T05:53:24.808Z,6.64
2019-03-05T05:54:24.827Z,6.75
2019-03-05T05:55:24.853Z,6.78
2019-03-05T05:56:24.874Z,6.62
2019-03-05T05:57:24.903Z,6.76
2019-03-05T05:58:24.926Z,6.72
2019-03-05T05:59:24.946Z,6.75
2019-03-05T06:00:24.969Z,6.75
2019-03-05T06:01:24.991Z,6.70
2019-03-05T06:02:25.020Z,6.79
2019-03-05T06:03:25.099Z,6.85
2019-03-05T06:04:25.060Z,6.85
2019-03-05T06:05:28.925Z,6.78
2019-03-05T06:06:25.101Z,6.68
2019-03-05T06:07:25.726Z,6.73
2019-03-05T06:08:25.152Z,6.76
2019-03-05T06:09:25.176Z,6.72
2019-03-05T06:10:25.196Z,6.79
2019-03-05T06:11:25.222Z,6.76
2019-03-05T06:12:25.243Z,6.82
2019-03-05T06:13:25.268Z,6.78
2019-03-05T06:14:25.291Z,6.79
2019-03-05T06:15:25.312Z,6.76
2019-03-05T06:16:25.337Z,6.76
2019-03-05T06:17:25.359Z,6.75
2019-03-05T06:18:25.381Z,6.76
2019-03-05T06:19:25.425Z,6.70
2019-03-05T06:20:25.431Z,6.55
2019-03-05T06:21:25.463Z,6.64
2019-03-05T06:22:25.531Z,6.52
2019-03-05T06:23:25.565Z,6.46
2019-03-05T06:24:25.522Z,6.55
2019-03-05T06:25:25.558Z,6.55
2019-03-05T06:26:25.591Z,6.52
2019-03-05T06:27:25.590Z,6.46
2019-03-05T06:28:25.629Z,6.46
2019-03-05T06:29:25.640Z,6.43
2019-03-05T06:30:25.661Z,6.49
2019-03-05T06:31:25.683Z,6.52
2019-03-05T06:32:25.710Z,6.49
2019-03-05T06:33:25.733Z,6.44
2019-03-05T06:34:25.754Z,6.57
2019-03-05T06:35:25.777Z,6.46
2019-03-05T06:36:25.802Z,6.42
2019-03-05T06:37:25.826Z,6.42
2019-03-05T06:38:25.849Z,6.39
2019-03-05T06:39:25.873Z,6.42
2019-03-05T06:40:25.893Z,6.42
2019-03-05T06:41:25.919Z,6.42
2019-03-05T06:42:25.946Z,6.42
2019-03-05T06:43:25.966Z,6.43
2019-03-05T06:44:25.987Z,6.36
2019-03-05T06:45:26.011Z,6.31
2019-03-05T06:46:26.036Z,6.40
2019-03-05T06:47:26.062Z,6.43
2019-03-05T06:48:26.083Z,6.34
2019-03-05T06:49:26.107Z,6.37
2019-03-05T06:50:26.128Z,6.36
2019-03-05T06:51:26.151Z,6.42
2019-03-05T06:52:26.177Z,6.43
2019-03-05T06:53:26.205Z,6.42
2019-03-05T06:54:26.236Z,6.42
2019-03-05T06:55:26.248Z,6.43
2019-03-05T06:56:26.273Z,6.60
2019-03-05T06:57:26.295Z,6.54
2019-03-05T06:58:26.322Z,6.60
2019-03-05T06:59:26.339Z,6.60
2019-03-05T07:00:26.365Z,6.73
2019-03-05T07:01:26.392Z,6.82
2019-03-05T07:02:26.482Z,6.80
2019-03-05T07:03:26.437Z,6.82
2019-03-05T07:04:26.460Z,6.80
2019-03-05T07:05:29.003Z,6.73
2019-03-05T07:06:26.508Z,6.78
2019-03-05T07:07:26.530Z,6.65
2019-03-05T07:08:26.558Z,6.57
2019-03-05T07:09:26.582Z,6.44
2019-03-05T07:10:26.599Z,6.44
2019-03-05T07:11:26.624Z,6.39
2019-03-05T07:12:26.652Z,6.33
2019-03-05T07:13:26.678Z,6.36
2019-03-05T07:14:26.695Z,6.31
2019-03-05T07:15:26.719Z,6.36
2019-03-05T07:16:26.747Z,6.33
2019-03-05T07:17:26.764Z,6.31
2019-03-05T07:18:26.787Z,6.33
2019-03-05T07:19:26.816Z,6.46
2019-03-05T07:20:26.837Z,6.39
2019-03-05T07:21:26.859Z,6.61
2019-03-05T07:22:26.883Z,6.55
2019-03-05T07:23:26.905Z,6.65
2019-03-05T07:24:26.929Z,6.58
2019-03-05T07:25:27.062Z,6.75
2019-03-05T07:26:26.984Z,6.65
2019-03-05T07:27:27.009Z,6.64
2019-03-05T07:28:27.025Z,6.67
2019-03-05T07:29:27.047Z,6.73
2019-03-05T07:30:27.077Z,6.76
2019-03-05T07:31:27.092Z,6.72
2019-03-05T07:32:27.120Z,6.82
2019-03-05T07:33:27.144Z,6.82
2019-03-05T07:34:27.171Z,6.85
2019-03-05T07:35:27.188Z,6.85
2019-03-05T07:36:27.215Z,6.94
2019-03-05T07:37:27.236Z,6.95
2019-03-05T07:38:27.262Z,6.94
2019-03-05T07:39:27.287Z,6.93
2019-03-05T07:40:27.306Z,6.97
2019-03-05T07:41:27.329Z,7.01
2019-03-05T07:42:27.358Z,6.90
2019-03-05T07:43:36.155Z,6.91
2019-03-05T07:44:27.400Z,6.91
2019-03-05T07:45:27.425Z,6.86
2019-03-05T07:46:27.448Z,6.93
2019-03-05T07:47:27.472Z,6.90
2019-03-05T07:48:29.599Z,6.88
2019-03-05T07:49:27.520Z,7.00
2019-03-05T07:50:27.541Z,6.83
2019-03-05T07:51:27.566Z,6.94
2019-03-05T07:52:27.591Z,6.94
2019-03-05T07:53:27.619Z,6.95
2019-03-05T07:54:27.636Z,6.97
2019-03-05T07:55:27.657Z,7.05
2019-03-05T07:56:27.682Z,7.08
2019-03-05T07:57:27.706Z,7.13
2019-03-05T07:58:27.731Z,7.26
2019-03-05T07:59:27.755Z,7.34
2019-03-05T08:00:27.779Z,7.29
2019-03-05T08:01:27.804Z,7.41
2019-03-05T08:02:30.451Z,7.45
2019-03-05T08:03:27.846Z,7.47
2019-03-05T08:04:28.679Z,7.56
2019-03-05T08:05:28.904Z,7.54
2019-03-05T08:06:27.917Z,7.56
2019-03-05T08:07:31.576Z,7.63
2019-03-05T08:08:27.964Z,7.77
2019-03-05T08:09:27.998Z,7.80
2019-03-05T08:10:28.012Z,7.80
2019-03-05T08:11:28.042Z,7.82
2019-03-05T08:12:28.062Z,7.91
2019-03-05T08:13:28.086Z,7.93
2019-03-05T08:14:28.108Z,7.98
2019-03-05T08:15:28.134Z,7.99
2019-03-05T08:16:28.162Z,7.96
2019-03-05T08:17:28.191Z,7.93
2019-03-05T08:18:28.214Z,7.78
2019-03-05T08:19:28.227Z,7.80
2019-03-05T08:20:28.253Z,7.74
2019-03-05T08:21:28.279Z,7.68
2019-03-05T08:22:28.301Z,7.68
2019-03-05T08:23:28.327Z,7.49
2019-03-05T08:24:28.365Z,7.49
2019-03-05T08:25:28.377Z,7.49
2019-03-05T08:26:28.401Z,7.61
2019-03-05T08:27:28.425Z,7.49
2019-03-05T08:28:28.456Z,7.48
2019-03-05T08:29:28.475Z,7.41
2019-03-05T08:30:28.498Z,7.48
2019-03-05T08:31:28.528Z,7.45
2019-03-05T08:32:28.547Z,7.39
2019-03-05T08:33:28.624Z,7.48
2019-03-05T08:34:28.594Z,7.47
2019-03-05T08:35:28.619Z,7.54
2019-03-05T08:36:28.643Z,7.56
2019-03-05T08:37:28.665Z,7.48
2019-03-05T08:38:28.687Z,7.30
2019-03-05T08:39:28.716Z,7.26
2019-03-05T08:40:28.739Z,7.15
2019-03-05T08:41:28.764Z,7.15
2019-03-05T08:42:28.794Z,7.04
2019-03-05T08:43:28.960Z,6.98
2019-03-05T08:44:28.841Z,6.95
2019-03-05T08:45:29.811Z,6.95
2019-03-05T08:46:28.881Z,6.98
2019-03-05T08:47:28.908Z,7.04
2019-03-05T08:48:28.938Z,6.97
2019-03-05T08:49:28.956Z,7.01
2019-03-05T08:50:28.994Z,6.95
2019-03-05T08:51:29.059Z,6.91
2019-03-05T08:52:29.100Z,7.00
2019-03-05T08:53:29.050Z,6.91
2019-03-05T08:54:29.080Z,7.00
2019-03-05T08:55:29.097Z,6.95
2019-03-05T08:56:29.121Z,6.94
2019-03-05T08:57:29.150Z,7.01
2019-03-05T08:58:29.167Z,7.04
2019-03-05T08:59:29.202Z,6.94
2019-03-05T09:00:29.220Z,6.97
2019-03-05T09:01:29.241Z,6.95
2019-03-05T09:02:29.278Z,7.04
2019-03-05T09:03:29.290Z,7.18
2019-03-05T09:04:29.320Z,7.27
2019-03-05T09:05:29.336Z,7.27
2019-03-05T09:06:29.396Z,7.26
2019-03-05T09:07:29.393Z,7.29
2019-03-05T09:08:29.414Z,7.41
2019-03-05T09:09:29.438Z,7.36
2019-03-05T09:10:29.476Z,7.34
2019-03-05T09:11:29.487Z,7.34
2019-03-05T09:12:29.504Z,7.59
2019-03-05T09:13:33.044Z,7.83
2019-03-05T09:14:29.563Z,7.75
2019-03-05T09:15:29.581Z,7.98
2019-03-05T09:16:29.613Z,9.23
2019-03-05T09:17:29.636Z,8.94
2019-03-05T09:18:32.269Z,9.48
2019-03-05T09:19:29.670Z,9.19
2019-03-05T09:20:29.705Z,9.24
2019-03-05T09:21:29.725Z,8.92
2019-03-05T09:22:29.757Z,8.60
2019-03-05T09:23:30.375Z,8.11
2019-03-05T09:24:29.831Z,7.86
2019-03-05T09:25:29.825Z,8.01
2019-03-05T09:26:29.860Z,9.24
2019-03-05T09:27:29.869Z,8.97
2019-03-05T09:28:29.924Z,8.65
2019-03-05T09:29:29.922Z,8.26
2019-03-05T09:30:29.947Z,7.99
2019-03-05T09:31:29.977Z,7.77
2019-03-05T09:32:29.999Z,7.73
2019-03-05T09:33:30.027Z,7.64
2019-03-05T09:34:30.050Z,7.61
2019-03-05T09:35:30.075Z,7.63
2019-03-05T09:36:30.120Z,7.71
2019-03-05T09:37:30.132Z,7.77
2019-03-05T09:38:32.976Z,7.80
2019-03-05T09:39:30.175Z,7.77
2019-03-05T09:40:30.223Z,7.91
2019-03-05T09:41:30.225Z,7.85
2019-03-05T09:42:39.547Z,8.03
2019-03-05T09:43:30.270Z,8.11
2019-03-05T09:44:30.295Z,8.31
2019-03-05T09:45:30.319Z,8.39
2019-03-05T09:46:30.343Z,8.25
2019-03-05T09:47:30.368Z,8.29
2019-03-05T09:48:30.399Z,8.40
2019-03-05T09:49:30.419Z,8.42
2019-03-05T09:50:32.145Z,8.50
2019-03-05T09:51:30.467Z,8.85
2019-03-05T09:52:30.495Z,8.77
2019-03-05T09:53:30.518Z,8.47
2019-03-05T09:54:30.545Z,8.32
2019-03-05T09:55:30.567Z,8.19
2019-03-05T09:56:30.593Z,7.99
2019-03-05T09:57:30.618Z,7.98
2019-03-05T09:58:30.645Z,7.86
2019-03-05T09:59:30.670Z,7.78
2019-03-05T10:00:30.696Z,7.77
2019-03-05T10:01:30.723Z,7.70
2019-03-05T10:02:30.743Z,7.67
2019-03-05T10:03:30.772Z,7.67
2019-03-05T10:04:30.804Z,7.52
2019-03-05T10:05:30.819Z,7.59
2019-03-05T10:06:30.842Z,7.49
2019-03-05T10:07:30.868Z,7.52
2019-03-05T10:08:32.637Z,7.49
2019-03-05T10:09:30.919Z,7.54
2019-03-05T10:10:30.950Z,7.63
2019-03-05T10:12:13.515Z,7.75
2019-03-05T10:13:13.581Z,7.78
2019-03-05T10:14:13.566Z,7.77
2019-03-05T10:15:13.586Z,7.98
2019-03-05T10:16:13.614Z,8.16
2019-03-05T10:17:13.639Z,8.98
2019-03-05T10:18:13.664Z,9.29
2019-03-05T10:19:13.687Z,9.92
2019-03-05T10:20:13.710Z,9.72
2019-03-05T10:21:13.740Z,9.74
2019-03-05T10:22:13.759Z,9.88
2019-03-05T10:23:13.796Z,9.23
2019-03-05T10:24:13.823Z,8.86
2019-03-05T10:25:13.835Z,8.53
2019-03-05T10:26:13.861Z,8.42
2019-03-05T10:27:13.885Z,8.34
2019-03-05T10:28:13.918Z,8.03
2019-03-05T10:29:13.938Z,7.99
2019-03-05T10:30:24.063Z,8.10
2019-03-05T10:31:13.992Z,8.17
2019-03-05T10:32:14.011Z,8.32
2019-03-05T10:33:14.036Z,8.35
2019-03-05T10:34:14.065Z,8.25
2019-03-05T10:35:14.089Z,8.13
2019-03-05T10:36:14.113Z,8.17
2019-03-05T10:37:18.754Z,8.06
2019-03-05T10:38:14.164Z,8.03
2019-03-05T10:39:14.189Z,8.16
2019-03-05T10:40:14.213Z,8.03
2019-03-05T10:41:14.238Z,7.99
2019-03-05T10:42:14.264Z,8.11
2019-03-05T10:43:14.289Z,8.35
2019-03-05T10:44:14.314Z,8.44
2019-03-05T10:45:14.344Z,8.46
2019-03-05T10:46:14.365Z,8.52
2019-03-05T10:47:14.394Z,8.46
2019-03-05T10:48:14.415Z,8.35
2019-03-05T10:49:14.440Z,8.16
2019-03-05T10:50:15.531Z,8.16
2019-03-05T10:51:14.488Z,8.11
2019-03-05T10:52:14.531Z,8.21
2019-03-05T10:53:14.536Z,8.21
2019-03-05T10:54:14.564Z,8.34
2019-03-05T10:55:25.738Z,8.58
2019-03-05T10:56:14.617Z,8.61
2019-03-05T10:57:14.639Z,8.50
2019-03-05T10:58:14.664Z,8.65
2019-03-05T10:59:14.688Z,8.62
2019-03-05T11:00:14.712Z,8.67
2019-03-05T11:01:14.736Z,8.74
2019-03-05T11:02:14.764Z,8.76
2019-03-05T11:03:14.787Z,8.69
2019-03-05T11:04:14.812Z,8.79
2019-03-05T11:05:14.837Z,8.97
2019-03-05T11:06:14.862Z,9.16
2019-03-05T11:07:14.896Z,9.23
2019-03-05T11:08:14.916Z,9.60
2019-03-05T11:09:14.937Z,9.50
2019-03-05T11:10:14.960Z,9.29
2019-03-05T11:11:14.987Z,9.82
2019-03-05T11:12:15.013Z,9.95
2019-03-05T11:13:15.041Z,9.96
2019-03-05T11:14:15.063Z,9.74
2019-03-05T11:15:15.086Z,9.50
2019-03-05T11:16:15.111Z,9.39
2019-03-05T11:17:15.140Z,9.47
2019-03-05T11:18:15.165Z,9.37
2019-03-05T11:19:15.190Z,9.29
2019-03-05T11:20:15.217Z,9.04
2019-03-05T11:21:15.240Z,9.05
2019-03-05T11:22:15.268Z,9.04
2019-03-05T11:23:15.294Z,9.17
2019-03-05T11:24:15.326Z,9.30
2019-03-05T11:25:15.342Z,9.60
2019-03-05T11:26:15.368Z,9.44
2019-03-05T11:27:15.395Z,9.44
2019-03-05T11:28:15.422Z,9.42
2019-03-05T11:29:15.449Z,9.47
2019-03-05T11:30:15.473Z,9.62
2019-03-05T11:31:15.497Z,9.59
2019-03-05T11:32:15.523Z,9.84
2019-03-05T11:33:15.550Z,10.08
2019-03-05T11:34:15.580Z,9.99
2019-03-05T11:35:15.606Z,10.03
2019-03-05T11:36:15.624Z,10.07
2019-03-05T11:37:15.650Z,10.23
2019-03-05T11:38:15.678Z,11.56
2019-03-05T11:39:15.710Z,11.88
2019-03-05T11:40:21.025Z,11.53
2019-03-05T11:41:15.759Z,11.41
2019-03-05T11:42:15.787Z,11.61
2019-03-05T11:43:15.806Z,11.00
2019-03-05T11:44:15.832Z,10.54
2019-03-05T11:45:15.865Z,10.39
2019-03-05T11:46:15.889Z,10.11
2019-03-05T11:47:15.913Z,9.99
2019-03-05T11:48:15.941Z,9.70
2019-03-05T11:49:15.966Z,9.71
2019-03-05T11:50:15.992Z,9.93
2019-03-05T11:51:16.027Z,9.74
2019-03-05T11:52:16.054Z,9.62
2019-03-05T11:53:16.080Z,9.57
2019-03-05T11:54:19.735Z,9.59
2019-03-05T11:55:16.123Z,9.41
2019-03-05T11:56:16.153Z,9.29
2019-03-05T11:57:16.179Z,9.39
2019-03-05T11:58:16.207Z,9.34
2019-03-05T11:59:16.232Z,9.45
2019-03-05T12:00:16.328Z,9.45
2019-03-05T12:01:16.283Z,9.50
2019-03-05T12:02:21.687Z,9.59
2019-03-05T12:03:16.334Z,9.57
2019-03-05T12:04:16.363Z,9.63
2019-03-05T12:05:16.388Z,9.72
2019-03-05T12:06:16.412Z,9.70
2019-03-05T12:07:16.438Z,9.63
2019-03-05T12:08:16.470Z,9.70
2019-03-05T12:09:16.490Z,9.48
2019-03-05T12:10:16.515Z,9.64
2019-03-05T12:11:16.542Z,9.70
2019-03-05T12:12:16.568Z,10.32
2019-03-05T12:13:16.595Z,10.36
2019-03-05T12:14:16.618Z,10.18
2019-03-05T12:15:16.648Z,10.11
2019-03-05T12:16:16.669Z,10.10
2019-03-05T12:17:16.700Z,10.18
2019-03-05T12:18:16.725Z,10.21
2019-03-05T12:19:16.753Z,10.98
2019-03-05T12:20:16.776Z,12.18
2019-03-05T12:21:16.800Z,13.17
2019-03-05T12:22:16.825Z,14.16
2019-03-05T12:23:16.851Z,13.39
2019-03-05T12:24:19.844Z,12.40
2019-03-05T12:25:16.912Z,12.28
2019-03-05T12:26:16.935Z,11.73
2019-03-05T12:27:16.963Z,11.57
2019-03-05T12:28:16.990Z,11.41
2019-03-05T12:29:17.051Z,11.30
2019-03-05T12:30:17.041Z,11.16
2019-03-05T12:31:17.066Z,10.88
2019-03-05T12:32:17.094Z,10.69
2019-03-05T12:33:17.129Z,10.54
2019-03-05T12:34:17.149Z,10.35
2019-03-05T12:35:17.195Z,10.47
2019-03-05T12:36:17.206Z,10.58
2019-03-05T12:37:17.237Z,11.59
2019-03-05T12:38:17.260Z,11.33
2019-03-05T12:39:17.286Z,12.15
2019-03-05T12:40:17.312Z,11.86
2019-03-05T12:41:17.339Z,11.61
2019-03-05T12:42:17.378Z,11.38
2019-03-05T12:43:17.401Z,11.12
2019-03-05T12:44:17.423Z,10.92
2019-03-05T12:45:17.448Z,10.58
2019-03-05T12:46:17.476Z,10.46
2019-03-05T12:47:17.503Z,10.25
2019-03-05T12:48:17.530Z,10.13
2019-03-05T12:49:17.565Z,10.11
2019-03-05T12:50:17.586Z,10.66
2019-03-05T12:51:17.610Z,11.24
2019-03-05T12:52:17.641Z,10.65
2019-03-05T12:53:17.669Z,10.29
2019-03-05T12:54:17.700Z,10.10
2019-03-05T12:55:17.720Z,10.00
2019-03-05T12:56:24.001Z,9.99
2019-03-05T12:57:17.808Z,10.15
2019-03-05T12:58:17.878Z,10.92
2019-03-05T12:59:17.828Z,10.79
2019-03-05T13:00:17.854Z,10.57
2019-03-05T13:01:17.885Z,10.44
2019-03-05T13:02:17.908Z,10.17
2019-03-05T13:03:17.931Z,9.98
2019-03-05T13:04:17.958Z,10.02
2019-03-05T13:05:17.986Z,10.20
2019-03-05T13:06:18.012Z,10.26
2019-03-05T13:07:19.011Z,10.36
2019-03-05T13:08:18.071Z,10.35
2019-03-05T13:09:19.465Z,10.42
2019-03-05T13:10:18.116Z,11.23
2019-03-05T13:11:18.143Z,12.15
2019-03-05T13:12:18.168Z,12.69
2019-03-05T13:13:18.197Z,13.65
2019-03-05T13:14:18.223Z,13.91
2019-03-05T13:15:18.250Z,14.34
2019-03-05T13:16:18.275Z,14.90
2019-03-05T13:17:18.303Z,14.66
2019-03-05T13:18:18.330Z,14.23
2019-03-05T13:19:18.357Z,14.08
2019-03-05T13:20:18.386Z,13.97
2019-03-05T13:21:18.631Z,13.81
2019-03-05T13:22:18.440Z,12.96
2019-03-05T13:23:18.469Z,12.51
2019-03-05T13:24:18.495Z,12.73
2019-03-05T13:25:18.618Z,12.52
2019-03-05T13:26:18.554Z,12.00
2019-03-05T13:27:22.413Z,11.67